Weather station in Munich

Current measurement: 13.3°C and 968.49hPa and 79.05% humidity and 281ppm CO2
(at 2021-12-31 03:11:24 )
[Warning: The battery can be running low or the connection unstable. Please check the device.]

Previous Measurements

Show/Hide
IDdevice_idTemperaturePressureHumidityCO2Timestamp
12668weather8080713.3°C968.49hPa79.05%281ppm2021-12-31 03:11:24
12667weather8080713.3°C968.6hPa79.05%401ppm2021-12-31 02:56:00
12666weather8080713.6°C968.6hPa78.77%406ppm2021-12-31 02:25:15
12665weather8080713.5°C968.36hPa79.35%409ppm2021-12-31 01:54:30
12664weather8080713.5°C968.32hPa79.75%401ppm2021-12-31 01:23:47
12663weather8080713.7°C968.46hPa79.05%403ppm2021-12-31 00:53:02
12662weather8080713.6°C968.36hPa79.84%402ppm2021-12-31 00:22:17
12661weather8080713.6°C968.27hPa79.5%420ppm2021-12-30 23:51:32
12660weather8080713.7°C968.22hPa78.19%423ppm2021-12-30 23:20:47
12659weather8080713.8°C967.66hPa79.08%375ppm2021-12-30 22:03:52
12658weather8080713.9°C967.52hPa79.1%416ppm2021-12-30 21:48:28
12657weather8080713.6°C967.28hPa80.56%409ppm2021-12-30 21:17:43
12656weather8080713.8°C966.78hPa81.99%440ppm2021-12-30 20:16:15
12655weather8080713.7°C966.79hPa82.07%413ppm2021-12-30 20:00:52
12654weather8080713.9°C966.66hPa81.2%417ppm2021-12-30 19:30:08
12653weather8080714°C965.81hPa81.79%444ppm2021-12-30 16:25:26
12652weather8080714°C965.74hPa81.71%402ppm2021-12-30 16:10:04
12651weather8080714.7°C965.13hPa78.26%327ppm2021-12-30 14:07:00
12650weather8080714.8°C964.86hPa78.24%386ppm2021-12-30 13:51:36
12649weather8080714.5°C964.88hPa80.27%388ppm2021-12-30 13:20:51
12648weather8080715.9°C964.75hPa95.44%889ppm2021-12-30 12:50:06
12647weather8080711.8°C960.14hPa88.45%388ppm2021-12-30 03:08:47
12646weather8080711.8°C959.92hPa88.47%401ppm2021-12-30 02:53:24
12645weather8080711.6°C959.6hPa87.91%403ppm2021-12-30 02:22:37
12644weather8080711.6°C958.92hPa88.17%399ppm2021-12-30 01:51:54
12643weather808079.39°C956.87hPa82.58%390ppm2021-12-29 22:16:24
12642weather808079.5°C956.69hPa82.62%414ppm2021-12-29 22:01:00
12641weather808079.3°C956.86hPa82.56%400ppm2021-12-29 21:30:16
12640weather808078.89°C956.21hPa80.12%396ppm2021-12-29 20:59:30
12639weather808079.3°C956.61hPa80.14%414ppm2021-12-29 20:44:06
12638weather808079.3°C956.57hPa76.23%362ppm2021-12-29 20:13:20
12637weather808079.5°C956.55hPa76.21%400ppm2021-12-29 19:57:57
12636weather808079.5°C956.72hPa73.31%404ppm2021-12-29 19:27:12
12635weather808079.89°C956.79hPa67.86%405ppm2021-12-29 18:56:27
12634weather8080710°C956.65hPa67.71%401ppm2021-12-29 18:25:42
12633weather808079.8°C956.92hPa66.94%407ppm2021-12-29 17:54:58
12632weather808079.6°C956.9hPa66.98%392ppm2021-12-29 17:39:36
12631weather808079.5°C956.9hPa66.47%387ppm2021-12-29 17:08:51
12630weather8080710°C956.16hPa64.96%418ppm2021-12-29 15:21:07
12629weather8080710°C956.04hPa64.96%389ppm2021-12-29 15:05:43
12628weather8080710.3°C955.89hPa65.75%390ppm2021-12-29 14:34:58
12627weather8080710.7°C955.48hPa65.18%385ppm2021-12-29 14:04:13
12626weather8080714.6°C955.28hPa86.9%838ppm2021-12-29 13:33:27
12625weather808077.1°C947.62hPa85.54%0ppm2021-12-28 09:44:02
12624weather808076.8°C947.33hPa83.11%0ppm2021-12-28 09:28:38
12623weather808076.8°C947.31hPa78.25%419ppm2021-12-28 09:13:15
12622weather808076.9°C946.77hPa78.24%410ppm2021-12-28 08:57:52
12621weather808076.6°C946.7hPa0%0ppm2021-12-28 08:42:30
12620weather808076.5°C946.67hPa76.55%417ppm2021-12-28 08:27:08
12619weather808076.5°C946.75hPa0%0ppm2021-12-28 08:11:44
12618weather808076.4°C947.02hPa77.69%289ppm2021-12-28 07:56:22
12617weather808076.3°C946.95hPa77.75%405ppm2021-12-28 07:41:00
12616weather808076.1°C946.81hPa0%0ppm2021-12-28 07:25:37
12615weather808076°C946.64hPa79.83%400ppm2021-12-28 07:10:16
12614weather808075.9°C946.61hPa0%0ppm2021-12-28 06:54:53
12613weather808075.8°C946.68hPa81.1%410ppm2021-12-28 06:39:31
12612weather808075.9°C946.91hPa0%0ppm2021-12-28 06:24:08
12611weather808076.2°C947.05hPa81.75%412ppm2021-12-28 06:08:47
12610weather808075.9°C947.16hPa0%0ppm2021-12-28 05:53:23
12609weather808076°C947.31hPa82.38%409ppm2021-12-28 05:38:01
12608weather808075.9°C947.56hPa0%0ppm2021-12-28 05:22:37
12607weather808076.2°C947.7hPa89.68%0ppm2021-12-28 05:07:17
12606weather808076.2°C947.72hPa90.66%0ppm2021-12-28 04:51:54
12605weather808076.2°C947.91hPa90.61%0ppm2021-12-28 04:36:30
12604weather808076.3°C947.89hPa91.04%0ppm2021-12-28 04:21:06
12603weather808076.3°C948.26hPa91.45%0ppm2021-12-28 04:05:42
12602weather808076.6°C948.45hPa90.67%0ppm2021-12-28 03:50:19
12601weather808076.6°C948.59hPa84.01%259ppm2021-12-28 03:34:56
12600weather808076.6°C948.62hPa84.06%404ppm2021-12-28 03:19:33
12599weather808076.8°C948.88hPa0%0ppm2021-12-28 03:04:09
12598weather808077.1°C949.07hPa83.37%400ppm2021-12-28 02:48:47
12597weather808077.2°C949.21hPa0%0ppm2021-12-28 02:33:23
12596weather808077.4°C949.13hPa82.4%406ppm2021-12-28 02:18:01
12595weather808077.3°C949.23hPa0%0ppm2021-12-28 02:02:37
12594weather808077.4°C949.08hPa89.57%0ppm2021-12-28 01:47:14
12593weather808077.4°C949.17hPa90.06%0ppm2021-12-28 01:31:52
12592weather808077.2°C949.24hPa84.77%424ppm2021-12-28 01:16:28
12591weather808077.4°C949.17hPa84.77%403ppm2021-12-28 01:01:05
12590weather808077.2°C949.45hPa0%0ppm2021-12-28 00:45:42
12589weather808077.2°C949.64hPa85.62%413ppm2021-12-28 00:30:21
12588weather808076.9°C949.83hPa0%0ppm2021-12-28 00:14:58
12587weather808076.7°C949.97hPa89.91%0ppm2021-12-27 23:59:35
12586weather808076.4°C950.04hPa88.57%0ppm2021-12-27 23:44:11
12585weather808076.5°C950.42hPa87.31%0ppm2021-12-27 23:28:47
12584weather808076.3°C950.3hPa80.32%424ppm2021-12-27 23:13:24
12583weather808076.4°C950.17hPa80.31%450ppm2021-12-27 22:58:00
12582weather808076.4°C950.11hPa0%0ppm2021-12-27 22:42:35
12581weather808076.5°C950hPa79.84%448ppm2021-12-27 22:27:15
12580weather808075.9°C949.9hPa0%0ppm2021-12-27 22:11:51
12579weather808075.9°C949.91hPa86.81%0ppm2021-12-27 21:56:30
12578weather808076.1°C949.92hPa85.7%0ppm2021-12-27 21:41:07
12577weather808075.6°C949.89hPa77.85%407ppm2021-12-27 21:25:43
12576weather808076.3°C950.02hPa77.83%421ppm2021-12-27 21:10:21
12575weather808076.9°C949.93hPa0%0ppm2021-12-27 20:55:00
12574weather8080723°C949.45hPa57.59%2468ppm2021-12-27 20:39:55
12573weather8080722.5°C949.42hPa58.97%2235ppm2021-12-27 20:36:52
12572weather8080720.8°C967.23hPa28.22%764ppm2021-12-22 17:07:55
12571weather8080723.9°C967.2hPa46.54%2057ppm2021-12-22 17:03:36
12570weather8080724.6°C967.15hPa46.39%2061ppm2021-12-22 17:01:42
12569weather8080725.1°C967.27hPa46.87%2255ppm2021-12-22 17:00:20
12568weather8080725°C967.15hPa45.82%2132ppm2021-12-22 16:58:18
12567weather8080724.9°C967.17hPa0%0ppm2021-12-22 16:57:01
12566weather8080724.9°C967.19hPa46.17%559ppm2021-12-22 16:55:08
12565weather8080724.8°C967.12hPa46.2%2124ppm2021-12-22 16:54:33
12564weather8080725°C967.21hPa46.03%1724ppm2021-12-22 16:53:32
12563weather8080724.8°C967.18hPa46.85%2221ppm2021-12-22 16:49:33
12562weather8080724.3°C967.3hPa45.92%2093ppm2021-12-22 16:31:24
12561weather8080724.4°C967.24hPa0%0ppm2021-12-22 16:29:38
12560weather8080724.5°C966.99hPa46.98%2128ppm2021-12-22 16:14:21
12559weather8080724.3°C967.2hPa48.09%2219ppm2021-12-22 16:06:29
12558weather8080724.4°C967.05hPa47.14%2045ppm2021-12-22 16:04:23
12557weather8080724.1°C967.11hPa18.76%0ppm2021-12-22 15:58:33
12556weather8080724.1°C967.12hPa20.46%0ppm2021-12-22 15:57:05
12555weather8080724.1°C967.1hPa0.06%0ppm2021-12-22 15:54:26
12554weather8080724.3°C967.16hPa1%0ppm2021-12-22 15:53:19
12553weather8080724.4°C967.17hPa1.73%0ppm2021-12-22 15:50:27
12552weather8080724.4°C967.22hPa0.78%0ppm2021-12-22 15:48:38
12551weather8080724.6°C967.25hPa14418.24%125ppm2021-12-22 15:46:13
12550weather8080724.3°C967.31hPa0%0ppm2021-12-22 15:41:38
12549weather8080724.5°C967.26hPa0%0ppm2021-12-22 15:40:11
12548weather8080724.6°C967.24hPa0%0ppm2021-12-22 15:38:14
12547weather8080724.6°C967.33hPa0%0ppm2021-12-22 15:37:12
12546weather8080724.6°C967.3hPa0%0ppm2021-12-22 15:35:20
12545weather8080724.6°C967.19hPa0%0ppm2021-12-22 15:28:50
12544weather8080724.8°C967.15hPa0%0ppm2021-12-22 15:25:10
12543weather8080725°C967.18hPa0%0ppm2021-12-22 15:19:16
12542weather808078.3°C962.51hPa%ppm2021-11-14 14:14:43
12541weather808078.39°C962.39hPa%ppm2021-11-14 13:59:42
12540weather808078.6°C962.38hPa%ppm2021-11-14 13:44:41
12539weather808078.3°C962.38hPa%ppm2021-11-14 13:29:39
12538weather808078.2°C962.29hPa%ppm2021-11-14 13:14:36
12537weather808078°C962.4hPa%ppm2021-11-14 12:59:35
12536weather808078.1°C962.38hPa%ppm2021-11-14 12:44:35
12535weather808078.2°C962.17hPa%ppm2021-11-14 12:29:34
12534weather808078.6°C962.09hPa%ppm2021-11-14 12:14:31
12533weather808078.2°C962.13hPa%ppm2021-11-14 11:59:29
12532weather808078.5°C962.16hPa%ppm2021-11-14 11:44:29
12531weather808078.6°C962.27hPa%ppm2021-11-14 11:29:27
12530weather808078.6°C962.23hPa%ppm2021-11-14 11:14:26
12529weather808079.3°C962.23hPa%ppm2021-11-14 10:59:24
12528weather808079.2°C962.17hPa%ppm2021-11-14 10:44:22
12527weather808078.2°C962.4hPa%ppm2021-11-14 10:29:21
12526weather808079.3°C962.11hPa%ppm2021-11-14 10:14:20
12525weather808079.2°C961.92hPa%ppm2021-11-14 09:59:18
12524weather808079°C961.94hPa%ppm2021-11-14 09:44:16
12523weather808078.7°C962.02hPa%ppm2021-11-14 09:29:15
12522weather808078.8°C962.08hPa%ppm2021-11-14 09:14:13
12521weather808078.5°C962.17hPa%ppm2021-11-14 08:59:12
12520weather808078.7°C962.14hPa%ppm2021-11-14 08:44:10
12519weather808078.7°C962.36hPa%ppm2021-11-14 08:29:08
12518weather808078.7°C962.06hPa%ppm2021-11-14 08:14:07
12517weather808078.7°C961.94hPa%ppm2021-11-14 07:59:06
12516weather808078.2°C961.87hPa%ppm2021-11-14 07:44:03
12515weather808078.39°C961.68hPa%ppm2021-11-14 07:29:03
12514weather808078.89°C961.44hPa%ppm2021-11-14 07:14:02
12513weather808078.7°C961.21hPa%ppm2021-11-14 06:59:00
12512weather808078.89°C961.1hPa%ppm2021-11-14 06:43:58
12511weather808079°C961.12hPa%ppm2021-11-14 06:28:57
12510weather808078.8°C960.9hPa%ppm2021-11-14 06:13:56
12509weather808079°C960.82hPa%ppm2021-11-14 05:58:56
12508weather808079°C960.79hPa%ppm2021-11-14 05:43:53
12507weather808079°C960.79hPa%ppm2021-11-14 05:28:52
12506weather808079.1°C960.68hPa%ppm2021-11-14 05:13:50
12505weather808078.89°C960.67hPa%ppm2021-11-14 04:58:47
12504weather808078.89°C960.63hPa%ppm2021-11-14 04:43:45
12503weather808078.89°C960.68hPa%ppm2021-11-14 04:28:43
12502weather808079°C960.7hPa%ppm2021-11-14 04:13:41
12501weather808078.7°C960.65hPa%ppm2021-11-14 03:58:39
12500weather808078.89°C960.5hPa%ppm2021-11-14 03:43:37
12499weather808079.1°C960.62hPa%ppm2021-11-14 03:28:36
12498weather808079.1°C960.63hPa%ppm2021-11-14 03:13:35
12497weather808079.1°C960.66hPa%ppm2021-11-14 02:58:33
12496weather808079°C960.74hPa%ppm2021-11-14 02:43:31
12495weather808079.1°C960.72hPa%ppm2021-11-14 02:28:30
12494weather808079.1°C960.73hPa%ppm2021-11-14 02:13:28
12493weather808078.89°C960.63hPa%ppm2021-11-14 01:58:29
12492weather808079°C960.43hPa%ppm2021-11-14 01:43:26
12491weather808079°C960.43hPa%ppm2021-11-14 01:28:24
12490weather808078.89°C960.42hPa%ppm2021-11-14 01:13:22
12489weather808079.1°C960.58hPa%ppm2021-11-14 00:58:21
12488weather808079.1°C960.7hPa%ppm2021-11-14 00:43:20
12487weather808078.89°C960.57hPa%ppm2021-11-14 00:28:20
12486weather808079.1°C960.75hPa%ppm2021-11-14 00:13:15
12485weather808078.89°C960.63hPa%ppm2021-11-13 23:58:33
12484weather808078.89°C960.7hPa%ppm2021-11-13 23:57:54
12483weather808079°C960.65hPa%ppm2021-11-13 23:42:51
12482weather808079°C960.66hPa%ppm2021-11-13 23:27:50
12481weather808078.8°C960.71hPa%ppm2021-11-13 23:12:49
12480weather808078.8°C960.72hPa%ppm2021-11-13 22:57:47
12479weather808078.89°C960.67hPa%ppm2021-11-13 22:42:47
12478weather808078.8°C960.71hPa%ppm2021-11-13 22:27:45
12477weather808078.8°C960.78hPa%ppm2021-11-13 22:12:44
12476weather808078.6°C960.78hPa%ppm2021-11-13 21:57:43
12475weather808078.6°C960.79hPa%ppm2021-11-13 21:42:41
12474weather808078.6°C960.65hPa%ppm2021-11-13 21:27:39
12473weather808078.7°C960.66hPa%ppm2021-11-13 21:12:39
12472weather808078.7°C960.63hPa%ppm2021-11-13 20:57:36
12471weather808078.8°C960.74hPa%ppm2021-11-13 20:42:35
12470weather808078.6°C960.71hPa%ppm2021-11-13 20:27:34
12469weather808078.7°C960.73hPa%ppm2021-11-13 20:12:34
12468weather808078.7°C960.76hPa%ppm2021-11-13 19:57:33
12467weather808078.5°C960.66hPa%ppm2021-11-13 19:42:31
12466weather808078.6°C960.7hPa%ppm2021-11-13 19:27:29
12465weather808078.6°C960.81hPa%ppm2021-11-13 19:12:27
12464weather808078.39°C960.81hPa%ppm2021-11-13 18:57:27
12463weather808078.7°C960.64hPa%ppm2021-11-13 18:42:26
12462weather808078.6°C960.63hPa%ppm2021-11-13 18:27:23
12461weather808078.7°C960.72hPa%ppm2021-11-13 18:12:22
12460weather808078.7°C960.66hPa%ppm2021-11-13 17:57:21
12459weather808078.7°C960.69hPa%ppm2021-11-13 17:42:18
12458weather808078.6°C960.79hPa%ppm2021-11-13 17:27:16
12457weather808078.5°C960.72hPa%ppm2021-11-13 17:12:15
12456weather808078.39°C960.74hPa%ppm2021-11-13 16:57:15
12455weather808078.39°C960.74hPa%ppm2021-11-13 16:42:12
12454weather808078.39°C960.94hPa%ppm2021-11-13 16:27:11
12453weather808078.39°C961hPa%ppm2021-11-13 16:12:10
12452weather808078.3°C961.06hPa%ppm2021-11-13 15:57:07
12451weather808078.39°C961.04hPa%ppm2021-11-13 15:42:07
12450weather808078.5°C960.92hPa%ppm2021-11-13 15:27:05
12449weather808078.5°C960.85hPa%ppm2021-11-13 15:12:04
12448weather808078.6°C961.01hPa%ppm2021-11-13 14:57:03
12447weather808078.3°C961.11hPa%ppm2021-11-13 14:42:02
12446weather808078.5°C961.1hPa%ppm2021-11-13 14:27:00
12445weather808078.6°C960.99hPa%ppm2021-11-13 14:11:59
12444weather808078.7°C960.95hPa%ppm2021-11-13 13:56:56
12443weather808078.89°C960.93hPa%ppm2021-11-13 13:41:55
12442weather808079°C960.81hPa%ppm2021-11-13 13:26:53
12441weather808078.8°C960.91hPa%ppm2021-11-13 13:11:51
12440weather808079°C961.02hPa%ppm2021-11-13 12:56:51
12439weather808078.89°C960.96hPa%ppm2021-11-13 12:41:50
12438weather808078.8°C961.11hPa%ppm2021-11-13 12:26:48
12437weather808078.7°C961.2hPa%ppm2021-11-13 12:11:46
12436weather808078.5°C961.06hPa%ppm2021-11-13 11:56:44
12435weather808078.6°C961.24hPa%ppm2021-11-13 11:41:42
12434weather808078.3°C961.19hPa%ppm2021-11-13 11:26:40
12433weather808078.39°C961.14hPa%ppm2021-11-13 11:11:38
12432weather808078.1°C961.21hPa%ppm2021-11-13 10:56:36
12431weather808077.9°C961.15hPa%ppm2021-11-13 10:41:34
12430weather808078.5°C961.12hPa%ppm2021-11-13 10:26:34
12429weather808078.89°C961.11hPa%ppm2021-11-13 10:11:31
12428weather808078.6°C961.09hPa%ppm2021-11-13 09:56:28
12427weather808078.39°C961.23hPa%ppm2021-11-13 09:41:26
12426weather808077.3°C960.81hPa%ppm2021-11-13 09:26:23
12425weather808076.9°C961hPa%ppm2021-11-13 09:11:22
12424weather808076.2°C961.08hPa%ppm2021-11-13 08:56:20
12423weather808076.2°C961.26hPa%ppm2021-11-13 08:41:18
12422weather808075.9°C961.4hPa%ppm2021-11-13 08:26:18
12421weather808075.9°C961.67hPa%ppm2021-11-13 08:11:16
12420weather808075.9°C961.41hPa%ppm2021-11-13 07:56:13
12419weather808075.3°C961.41hPa%ppm2021-11-13 07:41:12
12418weather808075.3°C961.35hPa%ppm2021-11-13 07:26:09
12417weather808075.7°C961.35hPa%ppm2021-11-13 07:11:07
12416weather808075.7°C961.29hPa%ppm2021-11-13 06:56:06
12415weather808075.9°C961.25hPa%ppm2021-11-13 06:41:04
12414weather808076°C961.23hPa%ppm2021-11-13 06:26:03
12413weather808076°C961.29hPa%ppm2021-11-13 06:11:01
12412weather808075.7°C961.16hPa%ppm2021-11-13 05:55:59
12411weather808075.9°C961.01hPa%ppm2021-11-13 05:40:58
12410weather808076°C960.91hPa%ppm2021-11-13 05:25:54
12409weather808075.9°C960.71hPa%ppm2021-11-13 05:10:53
12408weather808076.3°C960.49hPa%ppm2021-11-13 04:55:50
12407weather808076.1°C960.6hPa%ppm2021-11-13 04:40:48
12406weather808076.2°C960.62hPa%ppm2021-11-13 04:25:47
12405weather808076.4°C960.53hPa%ppm2021-11-13 04:10:46
12404weather808076.1°C960.47hPa%ppm2021-11-13 03:55:42
12403weather808076.1°C960.54hPa%ppm2021-11-13 03:40:40
12402weather808076.3°C960.37hPa%ppm2021-11-13 03:25:39
12401weather808076.1°C960.52hPa%ppm2021-11-13 03:10:38
12400weather808076.2°C960.38hPa%ppm2021-11-13 02:55:36
12399weather808076°C960.57hPa%ppm2021-11-13 02:40:33
12398weather808075.9°C960.75hPa%ppm2021-11-13 02:25:32
12397weather808075.9°C960.81hPa%ppm2021-11-13 02:10:30
12396weather808075.9°C960.79hPa%ppm2021-11-13 01:55:27
12395weather808076°C961.02hPa%ppm2021-11-13 01:40:27
12394weather808076°C961.14hPa%ppm2021-11-13 01:25:25
12393weather808075.8°C960.96hPa%ppm2021-11-13 01:10:23
12392weather808076.2°C961.21hPa%ppm2021-11-13 00:55:23
12391weather808076.1°C961.36hPa%ppm2021-11-13 00:40:21
12390weather808075.8°C961.45hPa%ppm2021-11-13 00:25:19
12389weather808076°C961.51hPa%ppm2021-11-13 00:10:18
12388weather808076.1°C961.61hPa%ppm2021-11-12 23:55:16
12387weather808075.9°C961.48hPa%ppm2021-11-12 23:40:13
12386weather808075.9°C961.58hPa%ppm2021-11-12 23:39:55
12385weather808076.3°C961.48hPa%ppm2021-11-12 23:24:53
12384weather808076.2°C961.57hPa%ppm2021-11-12 23:09:51
12383weather808076.2°C961.65hPa%ppm2021-11-12 22:54:49
12382weather808076.5°C961.71hPa%ppm2021-11-12 22:39:49
12381weather808076.3°C961.82hPa%ppm2021-11-12 22:24:48
12380weather808076.3°C961.98hPa%ppm2021-11-12 22:09:43
12379weather808076.3°C961.94hPa%ppm2021-11-12 21:54:42
12378weather808076.2°C961.81hPa%ppm2021-11-12 21:39:39
12377weather808076.3°C961.86hPa%ppm2021-11-12 21:24:37
12376weather808076.2°C961.89hPa%ppm2021-11-12 21:09:34
12375weather808076.2°C961.88hPa%ppm2021-11-12 20:54:31
12374weather808076.2°C961.79hPa%ppm2021-11-12 20:39:30
12373weather808076.2°C961.85hPa%ppm2021-11-12 20:24:28
12372weather808076.1°C961.95hPa%ppm2021-11-12 20:09:26
12371weather808076.3°C961.97hPa%ppm2021-11-12 19:54:24
12370weather808076.2°C962.04hPa%ppm2021-11-12 19:39:23
12369weather808075.9°C962.02hPa%ppm2021-11-12 19:24:20
12368weather808076.1°C962.18hPa%ppm2021-11-12 19:09:20
12367weather808075.8°C961.95hPa%ppm2021-11-12 18:54:19
12366weather808075.6°C962.1hPa%ppm2021-11-12 18:39:18
12365weather808075.7°C962.06hPa%ppm2021-11-12 18:24:16
12364weather808075.5°C961.89hPa%ppm2021-11-12 18:09:14
12363weather808075.7°C961.98hPa%ppm2021-11-12 17:54:13
12362weather808075.2°C961.83hPa%ppm2021-11-12 17:39:11
12361weather808075.6°C961.88hPa%ppm2021-11-12 17:24:10
12360weather808075.7°C961.81hPa%ppm2021-11-12 17:09:10
12359weather808075.4°C961.9hPa%ppm2021-11-12 16:54:08
12358weather808075.7°C961.87hPa%ppm2021-11-12 16:39:08
12357weather808075.7°C961.92hPa%ppm2021-11-12 16:24:06
12356weather808075.7°C962hPa%ppm2021-11-12 16:09:04
12355weather808075.6°C962.15hPa%ppm2021-11-12 15:54:04
12354weather808075.7°C962.06hPa%ppm2021-11-12 15:39:04
12353weather808076.1°C962.18hPa%ppm2021-11-12 15:24:02
12352weather808075.7°C962.36hPa%ppm2021-11-12 15:09:01
12351weather808076.1°C962.15hPa%ppm2021-11-12 14:53:59
12350weather808075.5°C962.33hPa%ppm2021-11-12 14:38:57
12349weather808075.7°C962.45hPa%ppm2021-11-12 14:23:55
12348weather808075.9°C962.48hPa%ppm2021-11-12 14:08:53
12347weather808075.3°C962.42hPa%ppm2021-11-12 13:53:51
12346weather808075.5°C962.56hPa%ppm2021-11-12 13:38:51
12345weather808075.9°C962.69hPa%ppm2021-11-12 13:23:50
12344weather808075.5°C962.85hPa%ppm2021-11-12 13:08:50
12343weather808075.5°C962.86hPa%ppm2021-11-12 12:53:50
12342weather808074.9°C963.1hPa%ppm2021-11-12 12:38:47
12341weather808075.2°C963.12hPa%ppm2021-11-12 12:23:45
12340weather808075.1°C963.14hPa%ppm2021-11-12 12:08:43
12339weather808075°C963.41hPa%ppm2021-11-12 11:53:41
12338weather808074.8°C963.55hPa%ppm2021-11-12 11:38:40
12337weather808074.3°C963.76hPa%ppm2021-11-12 11:23:36
12336weather808074.19°C964.04hPa%ppm2021-11-12 11:08:35
12335weather808074.6°C964.08hPa%ppm2021-11-12 10:53:34
12334weather808074.19°C964.19hPa%ppm2021-11-12 10:38:32
12333weather808073.8°C964.24hPa%ppm2021-11-12 10:23:31
12332weather808073.9°C964.47hPa%ppm2021-11-12 10:08:29
12331weather808074.19°C964.57hPa%ppm2021-11-12 09:53:27
12330weather808073.8°C964.62hPa%ppm2021-11-12 09:38:25
12329weather808073.9°C964.78hPa%ppm2021-11-12 09:23:22
12328weather808073.6°C964.88hPa%ppm2021-11-12 09:08:20
12327weather808073.3°C964.96hPa%ppm2021-11-12 08:53:20
12326weather808073.7°C965.13hPa%ppm2021-11-12 08:38:17
12325weather808073.8°C964.92hPa%ppm2021-11-12 08:23:16
12324weather808073.6°C965.16hPa%ppm2021-11-12 08:08:15
12323weather808073.4°C964.98hPa%ppm2021-11-12 07:53:14
12322weather808072.8°C965.04hPa%ppm2021-11-12 07:38:13
12321weather808073.1°C965.15hPa%ppm2021-11-12 07:23:11
12320weather808073.2°C965.16hPa%ppm2021-11-12 07:08:10
12319weather808073.7°C965.14hPa%ppm2021-11-12 06:53:07
12318weather808073.8°C965.24hPa%ppm2021-11-12 06:38:06
12317weather808073.9°C965.12hPa%ppm2021-11-12 06:23:05
12316weather808073.9°C965.15hPa%ppm2021-11-12 06:08:05
12315weather808074°C965.09hPa%ppm2021-11-12 05:53:04
12314weather808073.6°C965.12hPa%ppm2021-11-12 05:38:03
12313weather808073.9°C965.07hPa%ppm2021-11-12 05:23:02
12312weather808074.3°C965.35hPa%ppm2021-11-12 05:08:01
12311weather808074.19°C965.28hPa%ppm2021-11-12 04:52:57
12310weather808073.3°C965.31hPa%ppm2021-11-12 04:37:54
12309weather808073.7°C965.39hPa%ppm2021-11-12 04:22:53
12308weather808074.1°C965.32hPa%ppm2021-11-12 04:07:52
12307weather808074.4°C965.29hPa%ppm2021-11-12 03:52:51
12306weather808074.1°C965.56hPa%ppm2021-11-12 03:37:50
12305weather808074.1°C965.7hPa%ppm2021-11-12 03:22:48
12304weather808073.9°C965.76hPa%ppm2021-11-12 03:07:47
12303weather808074.8°C965.98hPa%ppm2021-11-12 02:52:45
12302weather808074.6°C966.15hPa%ppm2021-11-12 02:37:45
12301weather808074.6°C966.2hPa%ppm2021-11-12 02:22:43
12300weather808074.6°C966.17hPa%ppm2021-11-12 02:07:40
12299weather808074.8°C966.13hPa%ppm2021-11-12 01:52:39
12298weather808075°C966.37hPa%ppm2021-11-12 01:37:38
12297weather808074.8°C966.26hPa%ppm2021-11-12 01:22:36
12296weather808074.8°C966.41hPa%ppm2021-11-12 01:07:35
12295weather808074.1°C966.5hPa%ppm2021-11-12 00:52:33
12294weather808074.1°C966.8hPa%ppm2021-11-12 00:37:31
12293weather808074.8°C966.78hPa%ppm2021-11-12 00:22:31
12292weather808075.1°C966.82hPa%ppm2021-11-12 00:07:26
12291weather808074.9°C966.98hPa%ppm2021-11-11 23:52:24
12290weather808075.3°C966.84hPa%ppm2021-11-11 23:37:22
12289weather808075.2°C966.93hPa%ppm2021-11-11 23:37:05
12288weather808075.4°C967.06hPa%ppm2021-11-11 23:22:04
12287weather808075.2°C967.13hPa%ppm2021-11-11 23:07:03
12286weather808075.2°C967.15hPa%ppm2021-11-11 22:52:01
12285weather808074.8°C967.24hPa%ppm2021-11-11 22:36:59
12284weather808075.2°C967.45hPa%ppm2021-11-11 22:21:58
12283weather808075.9°C967.6hPa%ppm2021-11-11 22:06:56
12282weather808075.7°C967.7hPa%ppm2021-11-11 21:51:54
12281weather808075.2°C967.68hPa%ppm2021-11-11 21:36:53
12280weather808075.9°C967.56hPa%ppm2021-11-11 21:21:51
12279weather808075.9°C967.57hPa%ppm2021-11-11 21:06:50
12278weather808076.5°C967.6hPa%ppm2021-11-11 20:51:49
12277weather808076.4°C967.87hPa%ppm2021-11-11 20:36:48
12276weather808076.7°C967.85hPa%ppm2021-11-11 20:21:45
12275weather808076.8°C967.78hPa%ppm2021-11-11 20:06:44
12274weather808076.5°C967.81hPa%ppm2021-11-11 19:51:43
12273weather808076.9°C967.64hPa%ppm2021-11-11 19:36:41
12272weather808076.6°C967.83hPa%ppm2021-11-11 19:21:39
12271weather808076.5°C967.77hPa%ppm2021-11-11 19:06:39
12270weather808077.1°C967.68hPa%ppm2021-11-11 18:51:38
12269weather808077.2°C967.74hPa%ppm2021-11-11 18:36:36
12268weather808077.4°C967.6hPa%ppm2021-11-11 18:21:33
12267weather808077.2°C967.49hPa%ppm2021-11-11 18:06:31
12266weather808077.4°C967.42hPa%ppm2021-11-11 17:51:29
12265weather808077.2°C967.48hPa%ppm2021-11-11 17:36:27
12264weather808077.7°C967.15hPa%ppm2021-11-11 17:21:25
12263weather808077.8°C967hPa%ppm2021-11-11 17:06:24
12262weather808078.1°C966.96hPa%ppm2021-11-11 16:51:23
12261weather808078.1°C967.02hPa%ppm2021-11-11 16:36:20
12260weather808078.6°C966.84hPa%ppm2021-11-11 16:21:20
12259weather808079°C966.74hPa%ppm2021-11-11 16:06:18
12258weather808079.1°C966.75hPa%ppm2021-11-11 15:51:17
12257weather808079.2°C966.6hPa%ppm2021-11-11 15:36:14
12256weather808079.5°C966.56hPa%ppm2021-11-11 15:21:12
12255weather808079.7°C966.55hPa%ppm2021-11-11 15:06:10
12254weather808079.8°C966.65hPa%ppm2021-11-11 14:51:08
12253weather808079.6°C966.57hPa%ppm2021-11-11 14:36:07
12252weather8080710.2°C966.41hPa%ppm2021-11-11 14:21:06
12251weather8080710.3°C966.5hPa%ppm2021-11-11 14:06:04
12250weather8080710.2°C966.5hPa%ppm2021-11-11 13:51:03
12249weather8080710.3°C966.51hPa%ppm2021-11-11 13:36:01
12248weather8080710.8°C966.46hPa%ppm2021-11-11 13:21:01
12247weather8080711.2°C966.3hPa%ppm2021-11-11 13:05:59
12246weather8080711.5°C966.47hPa%ppm2021-11-11 12:50:57
12245weather8080712.1°C966.41hPa%ppm2021-11-11 12:35:57
12244weather8080713.1°C966.25hPa%ppm2021-11-11 12:20:57
12243weather8080713.5°C966.35hPa%ppm2021-11-11 12:05:54
12242weather8080713.6°C966.39hPa%ppm2021-11-11 11:50:54
12241weather8080713°C966.23hPa%ppm2021-11-11 11:35:54
12240weather8080713.5°C966.45hPa%ppm2021-11-11 11:20:54
12239weather8080713.6°C966.46hPa%ppm2021-11-11 11:05:53
12238weather8080712.7°C966.45hPa%ppm2021-11-11 10:50:50
12237weather8080711.1°C966.29hPa%ppm2021-11-11 10:35:44
12236weather808078.3°C966.63hPa%ppm2021-11-11 10:20:40
12235weather808077.8°C966.85hPa%ppm2021-11-11 10:05:38
12234weather808077.6°C967.07hPa%ppm2021-11-11 09:50:38
12233weather808077.6°C966.63hPa%ppm2021-11-11 09:35:34
12232weather808076.3°C966.96hPa%ppm2021-11-11 09:20:31
12231weather808075.3°C967.22hPa%ppm2021-11-11 09:05:29
12230weather808075.4°C967.3hPa%ppm2021-11-11 08:50:28
12229weather808075.2°C967.12hPa%ppm2021-11-11 08:35:25
12228weather808075.3°C966.85hPa%ppm2021-11-11 08:20:22
12227weather808074.4°C967.17hPa%ppm2021-11-11 08:05:21
12226weather808074.69°C966.94hPa%ppm2021-11-11 07:50:18
12225weather808074.69°C966.94hPa%ppm2021-11-11 07:35:17
12224weather808074.19°C966.85hPa%ppm2021-11-11 07:20:15
12223weather808074.6°C966.82hPa%ppm2021-11-11 07:05:14
12222weather808074.6°C966.81hPa%ppm2021-11-11 06:50:12
12221weather808073.9°C966.65hPa%ppm2021-11-11 06:35:10
12220weather808073.9°C966.42hPa%ppm2021-11-11 06:20:09
12219weather808074.1°C966.54hPa%ppm2021-11-11 06:05:07
12218weather808074.4°C966.41hPa%ppm2021-11-11 05:50:06
12217weather808074.8°C966.37hPa%ppm2021-11-11 05:35:06
12216weather808074.8°C966.29hPa%ppm2021-11-11 05:20:05
12215weather808074.9°C966.15hPa%ppm2021-11-11 05:05:04
12214weather808074.9°C966.25hPa%ppm2021-11-11 04:50:03
12213weather808074.6°C966.17hPa%ppm2021-11-11 04:34:59
12212weather808074.69°C966.07hPa%ppm2021-11-11 04:19:57
12211weather808074.9°C965.85hPa%ppm2021-11-11 04:04:56
12210weather808074.8°C965.96hPa%ppm2021-11-11 03:49:56
12209weather808075.1°C965.87hPa%ppm2021-11-11 03:34:55
12208weather808075°C966.07hPa%ppm2021-11-11 03:19:54
12207weather808075.5°C966.15hPa%ppm2021-11-11 03:04:52
12206weather808074.9°C966.26hPa%ppm2021-11-11 02:49:51
12205weather808075.3°C966.51hPa%ppm2021-11-11 02:34:49
12204weather808075.7°C966.3hPa%ppm2021-11-11 02:19:48
12203weather808075.2°C966.29hPa%ppm2021-11-11 02:04:48
12202weather808075.3°C966.35hPa%ppm2021-11-11 01:49:45
12201weather808075.8°C966.31hPa%ppm2021-11-11 01:34:43
12200weather808075.6°C966.36hPa%ppm2021-11-11 01:19:41
12199weather808075.5°C966.49hPa%ppm2021-11-11 01:04:41
12198weather808075.9°C966.56hPa%ppm2021-11-11 00:49:40
12197weather808075.8°C966.59hPa%ppm2021-11-11 00:34:36
12196weather808076.2°C966.8hPa%ppm2021-11-11 00:19:35
12195weather808076.2°C966.77hPa%ppm2021-11-11 00:04:34
12194weather808076.2°C966.8hPa%ppm2021-11-10 23:49:32
12193weather808076.6°C966.68hPa%ppm2021-11-10 23:34:30
12192weather808076.6°C966.72hPa%ppm2021-11-10 23:34:13
12191weather808076.7°C966.64hPa%ppm2021-11-10 23:19:11
12190weather808076.6°C966.56hPa%ppm2021-11-10 23:04:10
12189weather808076.4°C966.79hPa%ppm2021-11-10 22:49:08
12188weather808076.9°C966.92hPa%ppm2021-11-10 22:34:08
12187weather808077°C967.04hPa%ppm2021-11-10 22:19:04
12186weather808077°C967.23hPa%ppm2021-11-10 22:04:03
12185weather808077°C967.28hPa%ppm2021-11-10 21:48:59
12184weather808077.4°C967.18hPa%ppm2021-11-10 21:33:59
12183weather808077.4°C967.17hPa%ppm2021-11-10 21:18:57
12182weather808077.2°C967.14hPa%ppm2021-11-10 21:03:57
12181weather808077.8°C967.13hPa%ppm2021-11-10 20:48:56
12180weather808078°C967.1hPa%ppm2021-11-10 20:33:55
12179weather808078.2°C967.23hPa%ppm2021-11-10 20:18:52
12178weather808078.1°C967.41hPa%ppm2021-11-10 20:03:51
12177weather808078.3°C967.65hPa%ppm2021-11-10 19:48:50
12176weather808078.5°C967.49hPa%ppm2021-11-10 19:33:49
12175weather808078.5°C967.48hPa%ppm2021-11-10 19:18:45
12174weather808078.1°C967.39hPa%ppm2021-11-10 19:03:44
12173weather808078.5°C967.41hPa%ppm2021-11-10 18:48:41
12172weather808078.39°C967.59hPa%ppm2021-11-10 18:33:40
12171weather808078.3°C967.62hPa%ppm2021-11-10 18:18:38
12170weather808078.39°C967.59hPa%ppm2021-11-10 18:03:37
12169weather808078.39°C967.47hPa%ppm2021-11-10 17:48:37
12168weather808078.5°C967.61hPa%ppm2021-11-10 17:33:36
12167weather808078.39°C967.67hPa%ppm2021-11-10 17:18:36
12166weather808078.7°C967.79hPa%ppm2021-11-10 17:03:34
12165weather808078.5°C967.41hPa%ppm2021-11-10 16:48:32
12164weather808078.5°C967.22hPa%ppm2021-11-10 16:33:30
12163weather808078.7°C967.54hPa%ppm2021-11-10 16:18:28
12162weather808078.7°C967.62hPa%ppm2021-11-10 16:03:27
12161weather808078.7°C967.33hPa%ppm2021-11-10 15:48:37
12160weather808078.7°C967.35hPa%ppm2021-11-10 15:33:24
12159weather808078.89°C967.21hPa%ppm2021-11-10 15:18:22
12158weather808079°C967.24hPa%ppm2021-11-10 15:03:21
12157weather808079.1°C967.27hPa%ppm2021-11-10 14:48:20
12156weather808079.2°C967.27hPa%ppm2021-11-10 14:33:17
12155weather808079.2°C967.34hPa%ppm2021-11-10 14:18:15
12154weather808079.3°C967.36hPa%ppm2021-11-10 14:03:13
12153weather808079.39°C967.46hPa%ppm2021-11-10 13:48:13
12152weather808079.2°C967.34hPa%ppm2021-11-10 13:33:12
12151weather808079.2°C967.53hPa%ppm2021-11-10 13:18:11
12150weather808079.2°C967.46hPa%ppm2021-11-10 13:03:10
12149weather808079.2°C967.53hPa%ppm2021-11-10 12:48:09
12148weather808078.7°C967.47hPa%ppm2021-11-10 12:33:07
12147weather808079.3°C967.61hPa%ppm2021-11-10 12:18:05
12146weather808078.7°C967.54hPa%ppm2021-11-10 12:03:04
12145weather808079°C967.79hPa%ppm2021-11-10 11:48:02
12144weather808078.7°C967.84hPa%ppm2021-11-10 11:32:59
12143weather808079.2°C968.27hPa%ppm2021-11-10 11:17:59
12142weather808079.1°C968.44hPa%ppm2021-11-10 11:02:57
12141weather808079.7°C968.57hPa%ppm2021-11-10 10:47:55
12140weather808078.8°C968.34hPa%ppm2021-11-10 10:32:52
12139weather808078°C968.21hPa%ppm2021-11-10 10:17:51
12138weather808077.6°C968.4hPa%ppm2021-11-10 10:02:46
12137weather808076.9°C968.37hPa%ppm2021-11-10 09:47:44
12136weather808076.2°C968.37hPa%ppm2021-11-10 09:32:42
12135weather808076°C968.46hPa%ppm2021-11-10 09:17:40
12134weather808075.5°C968.46hPa%ppm2021-11-10 09:02:38
12133weather808075.6°C968.7hPa%ppm2021-11-10 08:47:36
12132weather808075.5°C968.71hPa%ppm2021-11-10 08:32:34
12131weather808075.2°C968.71hPa%ppm2021-11-10 08:17:33
12130weather808075°C968.71hPa%ppm2021-11-10 08:02:31
12129weather808074.3°C968.66hPa%ppm2021-11-10 07:47:28
12128weather808074.3°C968.63hPa%ppm2021-11-10 07:32:27
12127weather808073.9°C968.48hPa%ppm2021-11-10 07:17:26
12126weather808074.19°C968.34hPa%ppm2021-11-10 07:02:24
12125weather808073.9°C968.61hPa%ppm2021-11-10 06:47:23
12124weather808074.3°C968.43hPa%ppm2021-11-10 06:32:22
12123weather808074.4°C968.3hPa%ppm2021-11-10 06:17:20
12122weather808073.7°C968.36hPa%ppm2021-11-10 06:02:18
12121weather808073.7°C968.39hPa%ppm2021-11-10 05:47:16
12120weather808074.19°C968.34hPa%ppm2021-11-10 05:32:15
12119weather808073.7°C968.31hPa%ppm2021-11-10 05:17:14
12118weather808074.1°C968.3hPa%ppm2021-11-10 05:02:13
12117weather808074.19°C968.39hPa%ppm2021-11-10 04:47:11
12116weather808074°C968.45hPa%ppm2021-11-10 04:32:09
12115weather808074.1°C968.58hPa%ppm2021-11-10 04:17:08
12114weather808074.3°C968.56hPa%ppm2021-11-10 04:02:06
12113weather808074.4°C968.75hPa%ppm2021-11-10 03:47:04
12112weather808074.19°C968.78hPa%ppm2021-11-10 03:32:02
12111weather808074.4°C968.62hPa%ppm2021-11-10 03:17:00
12110weather808074.3°C968.86hPa%ppm2021-11-10 03:01:58
12109weather808074.19°C968.99hPa%ppm2021-11-10 02:46:57
12108weather808074.19°C968.85hPa%ppm2021-11-10 02:31:55
12107weather808074.4°C968.85hPa%ppm2021-11-10 02:16:55
12106weather808074.6°C969hPa%ppm2021-11-10 02:01:53
12105weather808075°C969.09hPa%ppm2021-11-10 01:46:54
12104weather808074.8°C969.21hPa%ppm2021-11-10 01:31:49
12103weather808074.6°C969.27hPa%ppm2021-11-10 01:16:46
12102weather808074.5°C969.36hPa%ppm2021-11-10 01:01:45
12101weather808074.19°C969.05hPa%ppm2021-11-10 00:46:43
12100weather808075.2°C969.15hPa%ppm2021-11-10 00:31:41
12099weather808075.2°C969.08hPa%ppm2021-11-10 00:16:38
12098weather808075.1°C969.09hPa%ppm2021-11-10 00:01:38
12097weather808075.6°C969.52hPa%ppm2021-11-09 23:46:35
12096weather808075.5°C969.2hPa%ppm2021-11-09 23:31:34
12095weather808075.5°C969.24hPa%ppm2021-11-09 23:31:15
12094weather808075.3°C969.37hPa%ppm2021-11-09 23:16:15
12093weather808075.4°C969.33hPa%ppm2021-11-09 23:01:14
12092weather808075.9°C969.23hPa%ppm2021-11-09 22:46:12
12091weather808075.7°C969.22hPa%ppm2021-11-09 22:31:10
12090weather808076°C969.12hPa%ppm2021-11-09 22:16:09
12089weather808075.8°C968.91hPa%ppm2021-11-09 22:01:07
12088weather808076.2°C968.98hPa%ppm2021-11-09 21:46:05
12087weather808076°C969.01hPa%ppm2021-11-09 21:31:05
12086weather808076.2°C969.12hPa%ppm2021-11-09 21:16:01
12085weather808076.2°C969.09hPa%ppm2021-11-09 21:01:01
12084weather808076.3°C968.82hPa%ppm2021-11-09 20:45:59
12083weather808076.5°C968.7hPa%ppm2021-11-09 20:30:58
12082weather808076.6°C968.75hPa%ppm2021-11-09 20:15:56
12081weather808076.6°C968.91hPa%ppm2021-11-09 20:00:54
12080weather808076.7°C968.81hPa%ppm2021-11-09 19:45:53
12079weather808076.3°C968.56hPa%ppm2021-11-09 19:30:52
12078weather808076.4°C968.75hPa%ppm2021-11-09 19:15:50
12077weather808076.7°C969.17hPa%ppm2021-11-09 19:00:47
12076weather808076.5°C969.13hPa%ppm2021-11-09 18:45:46
12075weather808076.7°C968.9hPa%ppm2021-11-09 18:30:45
12074weather808076.9°C969.24hPa%ppm2021-11-09 18:15:44
12073weather808076.8°C969.03hPa%ppm2021-11-09 18:00:42
12072weather808076.7°C969.09hPa%ppm2021-11-09 17:45:40
12071weather808076.9°C969.18hPa%ppm2021-11-09 17:30:39
12070weather808076.9°C969.27hPa%ppm2021-11-09 17:15:37
12069weather808077.2°C969.42hPa%ppm2021-11-09 17:00:37
12068weather808077.4°C969.29hPa%ppm2021-11-09 16:45:34
12067weather808077.6°C969.3hPa%ppm2021-11-09 16:30:31
12066weather808077.8°C969.33hPa%ppm2021-11-09 16:15:30
12065weather808078°C969.28hPa%ppm2021-11-09 16:00:28
12064weather808078.1°C969.32hPa%ppm2021-11-09 15:45:26
12063weather808078.39°C969.4hPa%ppm2021-11-09 15:30:23
12062weather808078.2°C969.55hPa%ppm2021-11-09 15:15:23
12061weather808078.39°C969.62hPa%ppm2021-11-09 15:00:22
12060weather808078.3°C969.69hPa%ppm2021-11-09 14:45:21
12059weather808078.39°C969.41hPa%ppm2021-11-09 14:30:20
12058weather808078.5°C969.42hPa%ppm2021-11-09 14:15:20
12057weather808078.6°C969.73hPa%ppm2021-11-09 14:00:18
12056weather808078.5°C969.89hPa%ppm2021-11-09 13:45:17
12055weather808078.7°C970.01hPa%ppm2021-11-09 13:30:17
12054weather808078.8°C969.88hPa%ppm2021-11-09 13:15:15
12053weather808078.39°C969.86hPa%ppm2021-11-09 13:00:13
12052weather808078.7°C969.97hPa%ppm2021-11-09 12:45:13
12051weather808079°C969.84hPa%ppm2021-11-09 12:30:11
12050weather808079.5°C969.65hPa%ppm2021-11-09 12:15:11
12049weather808075.2°C969.45hPa%ppm2021-11-09 00:47:51
12048weather808075.6°C969.39hPa%ppm2021-11-09 00:32:51
12047weather808075.3°C969.31hPa%ppm2021-11-09 00:17:49
12046weather808075.4°C969.5hPa%ppm2021-11-09 00:02:48
12045weather808075.4°C969.13hPa%ppm2021-11-08 23:47:46
12044weather808075.4°C969.16hPa%ppm2021-11-08 23:32:46
12043weather808075.4°C969.05hPa%ppm2021-11-08 23:17:45
12042weather808075.4°C969.19hPa%ppm2021-11-08 23:17:28
12041weather808075.4°C969.19hPa%ppm2021-11-08 23:02:29
12040weather808075.8°C968.98hPa%ppm2021-11-08 22:47:27
12039weather808075.8°C969.02hPa%ppm2021-11-08 22:32:25
12038weather808075.8°C968.75hPa%ppm2021-11-08 22:17:25
12037weather808076.2°C968.81hPa%ppm2021-11-08 22:02:23
12036weather808076°C968.78hPa%ppm2021-11-08 21:47:21
12035weather808076.4°C968.8hPa%ppm2021-11-08 21:32:19
12034weather808076.3°C968.77hPa%ppm2021-11-08 21:17:19
12033weather808076.5°C968.56hPa%ppm2021-11-08 21:02:16
12032weather808076.7°C968.47hPa%ppm2021-11-08 20:47:14
12031weather808076.9°C968.42hPa%ppm2021-11-08 20:32:12
12030weather808077.1°C968.32hPa%ppm2021-11-08 20:17:10
12029weather808076.8°C968.31hPa%ppm2021-11-08 20:02:08
12028weather808077.2°C968.41hPa%ppm2021-11-08 19:47:08
12027weather808077.4°C968.21hPa%ppm2021-11-08 19:32:05
12026weather808077.3°C968.23hPa%ppm2021-11-08 19:17:09
12025weather808077.5°C968.21hPa%ppm2021-11-08 19:02:03
12024weather808077.5°C968.15hPa%ppm2021-11-08 18:47:06
12023weather808077.9°C968.02hPa%ppm2021-11-08 18:32:04
12022weather808078.1°C968.01hPa%ppm2021-11-08 18:16:59
12021weather808078.39°C967.62hPa%ppm2021-11-08 18:01:58
12020weather808078.7°C967.66hPa%ppm2021-11-08 17:46:55
12019weather808078.89°C967.43hPa%ppm2021-11-08 17:31:54
12018weather808079°C967.2hPa%ppm2021-11-08 17:16:54
12017weather808079.2°C967.1hPa%ppm2021-11-08 17:01:52
12016weather808079.1°C966.88hPa%ppm2021-11-08 16:46:49
12015weather808079.2°C966.82hPa%ppm2021-11-08 16:31:48
12014weather808079.1°C966.72hPa%ppm2021-11-08 16:16:46
12013weather808079.39°C966.64hPa%ppm2021-11-08 16:01:44
12012weather808079.6°C966.4hPa%ppm2021-11-08 15:46:43
12011weather808079.7°C966.34hPa%ppm2021-11-08 15:31:42
12010weather808079.7°C966.11hPa%ppm2021-11-08 15:16:40
12009weather808079.89°C966.02hPa%ppm2021-11-08 15:01:38
12008weather8080710.2°C966.07hPa%ppm2021-11-08 14:46:37
12007weather8080710.3°C965.94hPa%ppm2021-11-08 14:31:36
12006weather8080710.3°C965.98hPa%ppm2021-11-08 14:16:34
12005weather8080710.3°C965.88hPa%ppm2021-11-08 14:01:33
12004weather8080710.4°C966.01hPa%ppm2021-11-08 13:46:32
12003weather808079.8°C966.25hPa%ppm2021-11-08 13:31:30
12002weather8080710.3°C966.3hPa%ppm2021-11-08 13:16:30
12001weather8080710°C966.48hPa%ppm2021-11-08 13:01:27
12000weather8080710°C966.39hPa%ppm2021-11-08 12:46:24
11999weather808079.3°C966.72hPa%ppm2021-11-08 12:31:23
11998weather808079.39°C966.82hPa%ppm2021-11-08 12:16:21
11997weather808079.8°C967.03hPa%ppm2021-11-08 12:01:19